sensor_id;sensor_type;location;lat;lon;timestamp;temperature;humidity
10512;DHT22;5304;48.604;2.096;2022-10-28T00:00:05;15.80;99.90
10512;DHT22;5304;48.604;2.096;2022-10-28T00:02:49;15.80;99.90
10512;DHT22;5304;48.604;2.096;2022-10-28T00:05:34;15.70;99.90
10512;DHT22;5304;48.604;2.096;2022-10-28T00:08:18;15.70;99.90
10512;DHT22;5304;48.604;2.096;2022-10-28T00:11:08;15.60;99.90
10512;DHT22;5304;48.604;2.096;2022-10-28T00:13:55;15.60;99.90
10512;DHT22;5304;48.604;2.096;2022-10-28T00:16:39;15.60;99.90
10512;DHT22;5304;48.604;2.096;2022-10-28T00:19:24;15.60;99.90
10512;DHT22;5304;48.604;2.096;2022-10-28T00:22:08;15.70;99.90
10512;DHT22;5304;48.604;2.096;2022-10-28T00:24:53;15.80;99.90
10512;DHT22;5304;48.604;2.096;2022-10-28T00:27:37;15.80;99.90
10512;DHT22;5304;48.604;2.096;2022-10-28T00:30:21;15.90;99.90
10512;DHT22;5304;48.604;2.096;2022-10-28T00:33:05;15.90;99.90
10512;DHT22;5304;48.604;2.096;2022-10-28T00:35:50;15.80;99.90
10512;DHT22;5304;48.604;2.096;2022-10-28T00:38:34;15.80;99.90
10512;DHT22;5304;48.604;2.096;2022-10-28T00:41:26;15.70;99.90
10512;DHT22;5304;48.604;2.096;2022-10-28T00:47:38;15.80;99.90
10512;DHT22;5304;48.604;2.096;2022-10-28T00:53:28;15.70;99.90
10512;DHT22;5304;48.604;2.096;2022-10-28T00:56:15;15.70;99.90
10512;DHT22;5304;48.604;2.096;2022-10-28T00:59:05;15.70;99.90
10512;DHT22;5304;48.604;2.096;2022-10-28T01:01:50;15.70;99.90
10512;DHT22;5304;48.604;2.096;2022-10-28T01:04:35;15.70;99.90
10512;DHT22;5304;48.604;2.096;2022-10-28T01:07:20;15.70;99.90
10512;DHT22;5304;48.604;2.096;2022-10-28T01:10:05;15.70;99.90
10512;DHT22;5304;48.604;2.096;2022-10-28T01:16:09;15.70;99.90
10512;DHT22;5304;48.604;2.096;2022-10-28T01:37:11;15.60;99.90
10512;DHT22;5304;48.604;2.096;2022-10-28T01:40:20;15.60;99.90
10512;DHT22;5304;48.604;2.096;2022-10-28T01:43:16;15.50;99.90
10512;DHT22;5304;48.604;2.096;2022-10-28T01:46:17;15.60;99.90
10512;DHT22;5304;48.604;2.096;2022-10-28T01:49:12;15.60;99.90
10512;DHT22;5304;48.604;2.096;2022-10-28T01:52:01;15.60;99.90
10512;DHT22;5304;48.604;2.096;2022-10-28T01:54:49;15.50;99.90
10512;DHT22;5304;48.604;2.096;2022-10-28T01:57:36;15.60;99.90
10512;DHT22;5304;48.604;2.096;2022-10-28T02:00:22;15.50;99.90
10512;DHT22;5304;48.604;2.096;2022-10-28T02:03:08;15.60;99.90
10512;DHT22;5304;48.604;2.096;2022-10-28T02:05:54;15.60;99.90
10512;DHT22;5304;48.604;2.096;2022-10-28T02:23:56;15.40;99.90
10512;DHT22;5304;48.604;2.096;2022-10-28T02:26:53;15.40;99.90
10512;DHT22;5304;48.604;2.096;2022-10-28T02:29:46;15.40;99.90
10512;DHT22;5304;48.604;2.096;2022-10-28T02:32:36;15.40;99.90
10512;DHT22;5304;48.604;2.096;2022-10-28T02:35:49;15.40;99.90
10512;DHT22;5304;48.604;2.096;2022-10-28T02:38:35;15.30;99.90
10512;DHT22;5304;48.604;2.096;2022-10-28T02:41:35;15.40;99.90
10512;DHT22;5304;48.604;2.096;2022-10-28T02:44:27;15.40;99.90
10512;DHT22;5304;48.604;2.096;2022-10-28T02:47:16;15.40;99.90
10512;DHT22;5304;48.604;2.096;2022-10-28T02:50:06;15.30;99.90
10512;DHT22;5304;48.604;2.096;2022-10-28T02:52:55;15.30;99.90
10512;DHT22;5304;48.604;2.096;2022-10-28T02:55:44;15.30;99.90
10512;DHT22;5304;48.604;2.096;2022-10-28T02:58:38;15.40;99.90
10512;DHT22;5304;48.604;2.096;2022-10-28T03:01:23;15.30;99.90
10512;DHT22;5304;48.604;2.096;2022-10-28T03:04:08;15.20;99.90
10512;DHT22;5304;48.604;2.096;2022-10-28T03:06:52;15.10;99.90
10512;DHT22;5304;48.604;2.096;2022-10-28T03:09:37;15.00;99.90
10512;DHT22;5304;48.604;2.096;2022-10-28T03:12:21;14.90;99.90
10512;DHT22;5304;48.604;2.096;2022-10-28T03:15:06;14.90;99.90
10512;DHT22;5304;48.604;2.096;2022-10-28T03:17:51;14.80;99.90
10512;DHT22;5304;48.604;2.096;2022-10-28T03:20:35;14.80;99.90
10512;DHT22;5304;48.604;2.096;2022-10-28T03:23:19;14.80;99.90
10512;DHT22;5304;48.604;2.096;2022-10-28T03:26:03;14.80;99.90
10512;DHT22;5304;48.604;2.096;2022-10-28T03:28:48;14.80;99.90
10512;DHT22;5304;48.604;2.096;2022-10-28T03:31:32;14.80;99.90
10512;DHT22;5304;48.604;2.096;2022-10-28T03:34:17;14.70;99.90
10512;DHT22;5304;48.604;2.096;2022-10-28T03:37:01;14.70;99.90
10512;DHT22;5304;48.604;2.096;2022-10-28T03:39:45;14.70;99.90
10512;DHT22;5304;48.604;2.096;2022-10-28T03:42:30;14.60;99.90
10512;DHT22;5304;48.604;2.096;2022-10-28T03:45:16;14.50;99.90
10512;DHT22;5304;48.604;2.096;2022-10-28T03:48:00;14.50;99.90
10512;DHT22;5304;48.604;2.096;2022-10-28T03:50:44;14.40;99.90
10512;DHT22;5304;48.604;2.096;2022-10-28T03:53:29;14.40;99.90
10512;DHT22;5304;48.604;2.096;2022-10-28T03:56:14;14.50;99.90
10512;DHT22;5304;48.604;2.096;2022-10-28T03:58:58;14.50;99.90
10512;DHT22;5304;48.604;2.096;2022-10-28T04:01:43;14.50;99.90
10512;DHT22;5304;48.604;2.096;2022-10-28T04:04:27;14.50;99.90
10512;DHT22;5304;48.604;2.096;2022-10-28T04:07:12;14.50;99.90
10512;DHT22;5304;48.604;2.096;2022-10-28T04:09:56;14.50;99.90
10512;DHT22;5304;48.604;2.096;2022-10-28T04:12:41;14.50;99.90
10512;DHT22;5304;48.604;2.096;2022-10-28T04:15:25;14.60;99.90
10512;DHT22;5304;48.604;2.096;2022-10-28T04:18:10;14.50;99.90
10512;DHT22;5304;48.604;2.096;2022-10-28T04:20:55;14.50;99.90
10512;DHT22;5304;48.604;2.096;2022-10-28T04:23:39;14.50;99.90
10512;DHT22;5304;48.604;2.096;2022-10-28T04:26:24;14.60;99.90
10512;DHT22;5304;48.604;2.096;2022-10-28T04:29:08;14.60;99.90
10512;DHT22;5304;48.604;2.096;2022-10-28T04:31:53;14.50;99.90
10512;DHT22;5304;48.604;2.096;2022-10-28T04:34:37;14.50;99.90
10512;DHT22;5304;48.604;2.096;2022-10-28T04:37:21;14.50;99.90
10512;DHT22;5304;48.604;2.096;2022-10-28T04:40:07;14.40;99.90
10512;DHT22;5304;48.604;2.096;2022-10-28T04:42:52;14.40;99.90
10512;DHT22;5304;48.604;2.096;2022-10-28T04:45:37;14.30;99.90
10512;DHT22;5304;48.604;2.096;2022-10-28T04:48:22;14.30;99.90
10512;DHT22;5304;48.604;2.096;2022-10-28T04:51:06;14.40;99.90
10512;DHT22;5304;48.604;2.096;2022-10-28T04:53:51;14.40;99.90
10512;DHT22;5304;48.604;2.096;2022-10-28T04:56:35;14.40;99.90
10512;DHT22;5304;48.604;2.096;2022-10-28T04:59:19;14.30;99.90
10512;DHT22;5304;48.604;2.096;2022-10-28T05:02:04;14.20;99.90
10512;DHT22;5304;48.604;2.096;2022-10-28T05:04:48;14.30;99.90
10512;DHT22;5304;48.604;2.096;2022-10-28T05:07:33;14.30;99.90
10512;DHT22;5304;48.604;2.096;2022-10-28T05:10:17;14.50;99.90
10512;DHT22;5304;48.604;2.096;2022-10-28T05:13:02;14.50;99.90
10512;DHT22;5304;48.604;2.096;2022-10-28T05:15:47;14.50;99.90
10512;DHT22;5304;48.604;2.096;2022-10-28T05:18:32;14.50;99.90
10512;DHT22;5304;48.604;2.096;2022-10-28T05:21:16;14.50;99.90
10512;DHT22;5304;48.604;2.096;2022-10-28T05:24:01;14.50;99.90
10512;DHT22;5304;48.604;2.096;2022-10-28T05:26:45;14.50;99.90
10512;DHT22;5304;48.604;2.096;2022-10-28T05:29:29;14.50;99.90
10512;DHT22;5304;48.604;2.096;2022-10-28T05:32:14;14.60;99.90
10512;DHT22;5304;48.604;2.096;2022-10-28T05:34:59;14.60;99.90
10512;DHT22;5304;48.604;2.096;2022-10-28T05:37:43;14.60;99.90
10512;DHT22;5304;48.604;2.096;2022-10-28T05:40:27;14.60;99.90
10512;DHT22;5304;48.604;2.096;2022-10-28T05:43:12;14.50;99.90
10512;DHT22;5304;48.604;2.096;2022-10-28T05:45:57;14.50;99.90
10512;DHT22;5304;48.604;2.096;2022-10-28T05:48:41;14.50;99.90
10512;DHT22;5304;48.604;2.096;2022-10-28T05:51:26;14.50;99.90
10512;DHT22;5304;48.604;2.096;2022-10-28T05:54:10;14.50;99.90
10512;DHT22;5304;48.604;2.096;2022-10-28T05:56:55;14.50;99.90
10512;DHT22;5304;48.604;2.096;2022-10-28T05:59:41;14.60;99.90
10512;DHT22;5304;48.604;2.096;2022-10-28T06:02:25;14.60;99.90
10512;DHT22;5304;48.604;2.096;2022-10-28T06:05:09;14.70;99.90
10512;DHT22;5304;48.604;2.096;2022-10-28T06:07:54;14.80;99.90
10512;DHT22;5304;48.604;2.096;2022-10-28T06:10:39;14.90;99.90
10512;DHT22;5304;48.604;2.096;2022-10-28T06:13:24;14.90;99.90
10512;DHT22;5304;48.604;2.096;2022-10-28T06:16:09;15.00;99.90
10512;DHT22;5304;48.604;2.096;2022-10-28T06:18:53;14.90;99.90
10512;DHT22;5304;48.604;2.096;2022-10-28T06:21:37;14.90;99.90
10512;DHT22;5304;48.604;2.096;2022-10-28T06:24:22;14.80;99.90
10512;DHT22;5304;48.604;2.096;2022-10-28T06:27:06;14.80;99.90
10512;DHT22;5304;48.604;2.096;2022-10-28T06:29:51;14.80;99.90
10512;DHT22;5304;48.604;2.096;2022-10-28T06:32:35;14.80;99.90
10512;DHT22;5304;48.604;2.096;2022-10-28T06:35:19;14.90;99.90
10512;DHT22;5304;48.604;2.096;2022-10-28T06:38:03;14.80;99.90
10512;DHT22;5304;48.604;2.096;2022-10-28T06:40:48;14.80;99.90
10512;DHT22;5304;48.604;2.096;2022-10-28T06:43:32;14.80;99.90
10512;DHT22;5304;48.604;2.096;2022-10-28T06:46:17;14.80;99.90
10512;DHT22;5304;48.604;2.096;2022-10-28T06:49:01;14.90;99.90
10512;DHT22;5304;48.604;2.096;2022-10-28T06:51:48;14.90;99.90
10512;DHT22;5304;48.604;2.096;2022-10-28T06:54:33;14.90;99.90
10512;DHT22;5304;48.604;2.096;2022-10-28T06:57:17;14.80;99.90
10512;DHT22;5304;48.604;2.096;2022-10-28T07:00:03;14.90;99.90
10512;DHT22;5304;48.604;2.096;2022-10-28T07:02:51;14.80;99.90
10512;DHT22;5304;48.604;2.096;2022-10-28T07:05:36;14.80;99.90
10512;DHT22;5304;48.604;2.096;2022-10-28T07:08:20;14.70;99.90
10512;DHT22;5304;48.604;2.096;2022-10-28T07:11:05;14.70;99.90
10512;DHT22;5304;48.604;2.096;2022-10-28T07:13:49;14.80;99.90
10512;DHT22;5304;48.604;2.096;2022-10-28T07:16:33;14.90;99.90
10512;DHT22;5304;48.604;2.096;2022-10-28T07:19:18;14.80;99.90
10512;DHT22;5304;48.604;2.096;2022-10-28T07:22:02;14.90;99.90
10512;DHT22;5304;48.604;2.096;2022-10-28T07:24:46;15.00;99.90
10512;DHT22;5304;48.604;2.096;2022-10-28T07:27:31;15.00;99.90
10512;DHT22;5304;48.604;2.096;2022-10-28T07:30:16;15.10;99.90
10512;DHT22;5304;48.604;2.096;2022-10-28T07:33:01;15.20;99.90
10512;DHT22;5304;48.604;2.096;2022-10-28T07:35:47;15.20;99.90
10512;DHT22;5304;48.604;2.096;2022-10-28T07:38:32;15.30;99.90
10512;DHT22;5304;48.604;2.096;2022-10-28T07:41:19;15.40;99.90
10512;DHT22;5304;48.604;2.096;2022-10-28T07:44:04;15.40;99.90
10512;DHT22;5304;48.604;2.096;2022-10-28T07:46:49;15.50;99.90
10512;DHT22;5304;48.604;2.096;2022-10-28T07:49:34;15.70;99.90
10512;DHT22;5304;48.604;2.096;2022-10-28T07:52:19;15.80;99.90
10512;DHT22;5304;48.604;2.096;2022-10-28T07:55:04;15.90;99.90
10512;DHT22;5304;48.604;2.096;2022-10-28T07:57:49;16.00;99.90
10512;DHT22;5304;48.604;2.096;2022-10-28T08:00:34;16.10;99.90
10512;DHT22;5304;48.604;2.096;2022-10-28T08:03:18;16.10;99.90
10512;DHT22;5304;48.604;2.096;2022-10-28T08:06:09;16.20;99.90
10512;DHT22;5304;48.604;2.096;2022-10-28T08:08:54;16.30;99.90
10512;DHT22;5304;48.604;2.096;2022-10-28T08:11:39;16.30;99.90
10512;DHT22;5304;48.604;2.096;2022-10-28T08:14:23;16.60;99.90
10512;DHT22;5304;48.604;2.096;2022-10-28T08:17:08;16.70;99.90
10512;DHT22;5304;48.604;2.096;2022-10-28T08:19:52;16.70;99.90
10512;DHT22;5304;48.604;2.096;2022-10-28T08:22:37;16.80;99.90
10512;DHT22;5304;48.604;2.096;2022-10-28T08:25:21;16.90;99.90
10512;DHT22;5304;48.604;2.096;2022-10-28T08:28:05;16.90;99.90
10512;DHT22;5304;48.604;2.096;2022-10-28T08:30:50;16.90;99.90
10512;DHT22;5304;48.604;2.096;2022-10-28T08:33:39;17.00;99.90
10512;DHT22;5304;48.604;2.096;2022-10-28T08:36:24;17.30;99.90
10512;DHT22;5304;48.604;2.096;2022-10-28T08:39:08;17.40;99.90
10512;DHT22;5304;48.604;2.096;2022-10-28T08:42:08;17.40;99.90
10512;DHT22;5304;48.604;2.096;2022-10-28T08:48:14;17.70;99.90
10512;DHT22;5304;48.604;2.096;2022-10-28T08:51:29;18.00;99.90
10512;DHT22;5304;48.604;2.096;2022-10-28T08:54:25;18.30;99.90
10512;DHT22;5304;48.604;2.096;2022-10-28T08:57:16;18.50;99.90
10512;DHT22;5304;48.604;2.096;2022-10-28T09:00:04;18.90;99.90
10512;DHT22;5304;48.604;2.096;2022-10-28T09:05:45;19.30;99.90
10512;DHT22;5304;48.604;2.096;2022-10-28T09:08:40;19.40;99.90
10512;DHT22;5304;48.604;2.096;2022-10-28T09:14:29;19.80;99.90
10512;DHT22;5304;48.604;2.096;2022-10-28T09:17:46;20.00;99.90
10512;DHT22;5304;48.604;2.096;2022-10-28T09:20:30;20.00;99.90
10512;DHT22;5304;48.604;2.096;2022-10-28T09:29:29;20.80;99.90
10512;DHT22;5304;48.604;2.096;2022-10-28T09:32:40;21.10;99.90
10512;DHT22;5304;48.604;2.096;2022-10-28T09:35:29;20.90;99.90
10512;DHT22;5304;48.604;2.096;2022-10-28T09:38:26;20.60;99.90
10512;DHT22;5304;48.604;2.096;2022-10-28T09:41:18;20.30;99.90
10512;DHT22;5304;48.604;2.096;2022-10-28T09:47:36;19.90;99.90
10512;DHT22;5304;48.604;2.096;2022-10-28T09:50:27;20.00;99.90
10512;DHT22;5304;48.604;2.096;2022-10-28T09:53:31;20.00;99.90
10512;DHT22;5304;48.604;2.096;2022-10-28T09:56:16;20.00;99.90
10512;DHT22;5304;48.604;2.096;2022-10-28T09:59:01;20.10;99.90
10512;DHT22;5304;48.604;2.096;2022-10-28T10:01:46;20.30;99.90
10512;DHT22;5304;48.604;2.096;2022-10-28T10:04:30;20.40;99.90
10512;DHT22;5304;48.604;2.096;2022-10-28T10:07:31;20.50;99.90
10512;DHT22;5304;48.604;2.096;2022-10-28T10:10:25;20.60;99.90
10512;DHT22;5304;48.604;2.096;2022-10-28T10:13:12;20.80;99.90
10512;DHT22;5304;48.604;2.096;2022-10-28T10:16:04;20.90;99.90
10512;DHT22;5304;48.604;2.096;2022-10-28T10:18:53;20.90;99.90
10512;DHT22;5304;48.604;2.096;2022-10-28T10:21:48;20.90;99.90
10512;DHT22;5304;48.604;2.096;2022-10-28T10:24:34;21.00;99.90
10512;DHT22;5304;48.604;2.096;2022-10-28T10:27:19;21.10;99.90
10512;DHT22;5304;48.604;2.096;2022-10-28T10:30:13;21.10;99.90
10512;DHT22;5304;48.604;2.096;2022-10-28T10:33:02;21.10;99.90
10512;DHT22;5304;48.604;2.096;2022-10-28T10:38:58;21.20;99.90
10512;DHT22;5304;48.604;2.096;2022-10-28T10:41:44;21.10;99.90
10512;DHT22;5304;48.604;2.096;2022-10-28T10:44:32;20.90;99.90
10512;DHT22;5304;48.604;2.096;2022-10-28T10:47:18;20.90;99.90
10512;DHT22;5304;48.604;2.096;2022-10-28T10:50:27;21.00;99.90
10512;DHT22;5304;48.604;2.096;2022-10-28T10:53:31;21.20;99.90
10512;DHT22;5304;48.604;2.096;2022-10-28T10:56:24;21.40;99.90
10512;DHT22;5304;48.604;2.096;2022-10-28T10:59:27;21.40;99.90
10512;DHT22;5304;48.604;2.096;2022-10-28T11:02:32;21.40;99.90
10512;DHT22;5304;48.604;2.096;2022-10-28T11:05:21;21.60;99.90
10512;DHT22;5304;48.604;2.096;2022-10-28T11:08:17;21.60;99.90
10512;DHT22;5304;48.604;2.096;2022-10-28T11:11:18;21.70;99.90
10512;DHT22;5304;48.604;2.096;2022-10-28T11:17:00;21.40;99.90
10512;DHT22;5304;48.604;2.096;2022-10-28T11:19:45;21.30;99.90
10512;DHT22;5304;48.604;2.096;2022-10-28T11:22:42;21.30;99.90
10512;DHT22;5304;48.604;2.096;2022-10-28T11:25:53;21.40;99.90
10512;DHT22;5304;48.604;2.096;2022-10-28T11:44:06;21.90;99.90
10512;DHT22;5304;48.604;2.096;2022-10-28T11:47:05;22.00;99.90
10512;DHT22;5304;48.604;2.096;2022-10-28T11:53:29;22.10;99.90
10512;DHT22;5304;48.604;2.096;2022-10-28T11:59:38;22.50;99.90
10512;DHT22;5304;48.604;2.096;2022-10-28T12:05:29;22.60;99.90
10512;DHT22;5304;48.604;2.096;2022-10-28T12:23:24;22.30;99.90
10512;DHT22;5304;48.604;2.096;2022-10-28T12:26:12;22.20;99.90
10512;DHT22;5304;48.604;2.096;2022-10-28T12:29:00;22.20;99.90
10512;DHT22;5304;48.604;2.096;2022-10-28T12:31:54;22.20;99.90
10512;DHT22;5304;48.604;2.096;2022-10-28T12:38:35;22.30;99.90
10512;DHT22;5304;48.604;2.096;2022-10-28T12:44:31;22.40;99.90
10512;DHT22;5304;48.604;2.096;2022-10-28T12:50:47;22.30;99.90
10512;DHT22;5304;48.604;2.096;2022-10-28T12:56:43;22.40;99.90
10512;DHT22;5304;48.604;2.096;2022-10-28T12:59:35;22.50;99.90
10512;DHT22;5304;48.604;2.096;2022-10-28T13:02:54;22.60;99.90
10512;DHT22;5304;48.604;2.096;2022-10-28T13:20:44;22.80;99.90
10512;DHT22;5304;48.604;2.096;2022-10-28T13:23:54;22.80;99.90
10512;DHT22;5304;48.604;2.096;2022-10-28T13:26:42;22.70;99.90
10512;DHT22;5304;48.604;2.096;2022-10-28T13:29:31;22.50;99.90
10512;DHT22;5304;48.604;2.096;2022-10-28T13:32:37;22.40;99.90
10512;DHT22;5304;48.604;2.096;2022-10-28T13:35:25;22.40;99.90
10512;DHT22;5304;48.604;2.096;2022-10-28T13:38:12;22.30;99.90
10512;DHT22;5304;48.604;2.096;2022-10-28T13:56:33;22.10;99.90
10512;DHT22;5304;48.604;2.096;2022-10-28T13:59:23;22.20;99.90
10512;DHT22;5304;48.604;2.096;2022-10-28T14:05:17;22.00;99.90
10512;DHT22;5304;48.604;2.096;2022-10-28T14:08:03;22.00;99.90
10512;DHT22;5304;48.604;2.096;2022-10-28T14:13:55;21.90;99.90
10512;DHT22;5304;48.604;2.096;2022-10-28T14:16:44;22.00;99.90
10512;DHT22;5304;48.604;2.096;2022-10-28T14:19:28;22.00;99.90
10512;DHT22;5304;48.604;2.096;2022-10-28T14:22:32;22.00;99.90
10512;DHT22;5304;48.604;2.096;2022-10-28T14:40:05;21.90;99.90
10512;DHT22;5304;48.604;2.096;2022-10-28T14:49:34;21.80;99.90
10512;DHT22;5304;48.604;2.096;2022-10-28T14:52:19;21.80;99.90
10512;DHT22;5304;48.604;2.096;2022-10-28T14:55:26;21.70;99.90
10512;DHT22;5304;48.604;2.096;2022-10-28T15:01:10;21.70;99.90
10512;DHT22;5304;48.604;2.096;2022-10-28T15:04:00;21.70;99.90
10512;DHT22;5304;48.604;2.096;2022-10-28T15:06:49;21.70;99.90
10512;DHT22;5304;48.604;2.096;2022-10-28T15:09:34;21.80;99.90
10512;DHT22;5304;48.604;2.096;2022-10-28T15:12:20;21.70;99.90
10512;DHT22;5304;48.604;2.096;2022-10-28T15:15:23;21.60;99.90
10512;DHT22;5304;48.604;2.096;2022-10-28T15:18:21;21.60;99.90
10512;DHT22;5304;48.604;2.096;2022-10-28T15:21:07;21.50;99.90
10512;DHT22;5304;48.604;2.096;2022-10-28T15:23:59;21.40;99.90
10512;DHT22;5304;48.604;2.096;2022-10-28T15:26:44;21.20;99.90
10512;DHT22;5304;48.604;2.096;2022-10-28T15:29:28;21.20;99.90
10512;DHT22;5304;48.604;2.096;2022-10-28T15:32:33;21.20;99.90
10512;DHT22;5304;48.604;2.096;2022-10-28T15:35:35;21.10;99.90
10512;DHT22;5304;48.604;2.096;2022-10-28T15:44:36;20.80;99.90
10512;DHT22;5304;48.604;2.096;2022-10-28T15:47:32;20.70;99.90
10512;DHT22;5304;48.604;2.096;2022-10-28T15:50:22;20.70;99.90
10512;DHT22;5304;48.604;2.096;2022-10-28T15:53:30;20.60;99.90
10512;DHT22;5304;48.604;2.096;2022-10-28T16:01:42;20.60;99.90
10512;DHT22;5304;48.604;2.096;2022-10-28T16:04:39;20.50;99.90
10512;DHT22;5304;48.604;2.096;2022-10-28T16:07:24;20.50;99.90
10512;DHT22;5304;48.604;2.096;2022-10-28T16:10:13;20.40;99.90
10512;DHT22;5304;48.604;2.096;2022-10-28T16:12:58;20.30;99.90
10512;DHT22;5304;48.604;2.096;2022-10-28T16:16:07;20.30;99.90
10512;DHT22;5304;48.604;2.096;2022-10-28T16:19:24;20.20;99.90
10512;DHT22;5304;48.604;2.096;2022-10-28T16:22:12;20.00;99.90
10512;DHT22;5304;48.604;2.096;2022-10-28T16:24:57;19.90;99.90
10512;DHT22;5304;48.604;2.096;2022-10-28T16:27:42;19.80;99.90
10512;DHT22;5304;48.604;2.096;2022-10-28T16:30:27;19.70;99.90
10512;DHT22;5304;48.604;2.096;2022-10-28T16:33:11;19.60;99.90
10512;DHT22;5304;48.604;2.096;2022-10-28T16:35:55;19.50;99.90
10512;DHT22;5304;48.604;2.096;2022-10-28T16:38:40;19.40;99.90
10512;DHT22;5304;48.604;2.096;2022-10-28T16:41:24;19.30;99.90
10512;DHT22;5304;48.604;2.096;2022-10-28T16:44:15;19.20;99.90
10512;DHT22;5304;48.604;2.096;2022-10-28T16:47:00;19.20;99.90
10512;DHT22;5304;48.604;2.096;2022-10-28T16:49:45;19.30;99.90
10512;DHT22;5304;48.604;2.096;2022-10-28T16:52:32;19.20;99.90
10512;DHT22;5304;48.604;2.096;2022-10-28T16:55:17;19.20;99.90
10512;DHT22;5304;48.604;2.096;2022-10-28T16:58:02;19.00;99.90
10512;DHT22;5304;48.604;2.096;2022-10-28T17:00:47;19.00;99.90
10512;DHT22;5304;48.604;2.096;2022-10-28T17:03:31;19.00;99.90
10512;DHT22;5304;48.604;2.096;2022-10-28T17:06:15;19.00;99.90
10512;DHT22;5304;48.604;2.096;2022-10-28T17:08:59;18.80;99.90
10512;DHT22;5304;48.604;2.096;2022-10-28T17:11:44;18.80;99.90
10512;DHT22;5304;48.604;2.096;2022-10-28T17:14:28;18.60;99.90
10512;DHT22;5304;48.604;2.096;2022-10-28T17:17:12;18.60;99.90
10512;DHT22;5304;48.604;2.096;2022-10-28T17:19:57;18.50;99.90
10512;DHT22;5304;48.604;2.096;2022-10-28T17:22:41;18.40;99.90
10512;DHT22;5304;48.604;2.096;2022-10-28T17:25:26;18.40;99.90
10512;DHT22;5304;48.604;2.096;2022-10-28T17:28:10;18.40;99.90
10512;DHT22;5304;48.604;2.096;2022-10-28T17:31:05;18.30;99.90
10512;DHT22;5304;48.604;2.096;2022-10-28T17:33:52;18.20;99.90
10512;DHT22;5304;48.604;2.096;2022-10-28T17:36:37;18.10;99.90
10512;DHT22;5304;48.604;2.096;2022-10-28T17:39:22;18.10;99.90
10512;DHT22;5304;48.604;2.096;2022-10-28T17:42:07;18.00;99.90
10512;DHT22;5304;48.604;2.096;2022-10-28T17:44:52;18.00;99.90
10512;DHT22;5304;48.604;2.096;2022-10-28T17:47:36;17.90;99.90
10512;DHT22;5304;48.604;2.096;2022-10-28T17:50:20;17.90;99.90
10512;DHT22;5304;48.604;2.096;2022-10-28T17:53:05;17.80;99.90
10512;DHT22;5304;48.604;2.096;2022-10-28T17:55:58;17.70;99.90
10512;DHT22;5304;48.604;2.096;2022-10-28T17:58:42;17.60;99.90
10512;DHT22;5304;48.604;2.096;2022-10-28T18:01:28;17.60;99.90
10512;DHT22;5304;48.604;2.096;2022-10-28T18:04:12;17.50;99.90
10512;DHT22;5304;48.604;2.096;2022-10-28T18:06:58;17.50;99.90
10512;DHT22;5304;48.604;2.096;2022-10-28T18:09:43;17.40;99.90
10512;DHT22;5304;48.604;2.096;2022-10-28T18:12:28;17.40;99.90
10512;DHT22;5304;48.604;2.096;2022-10-28T18:15:12;17.40;99.90
10512;DHT22;5304;48.604;2.096;2022-10-28T18:17:57;17.40;99.90
10512;DHT22;5304;48.604;2.096;2022-10-28T18:20:41;17.40;99.90
10512;DHT22;5304;48.604;2.096;2022-10-28T18:23:25;17.30;99.90
10512;DHT22;5304;48.604;2.096;2022-10-28T18:26:14;17.50;99.90
10512;DHT22;5304;48.604;2.096;2022-10-28T18:28:58;17.40;99.90
10512;DHT22;5304;48.604;2.096;2022-10-28T18:31:47;17.40;99.90
10512;DHT22;5304;48.604;2.096;2022-10-28T18:34:31;17.30;99.90
10512;DHT22;5304;48.604;2.096;2022-10-28T18:37:16;17.20;99.90
10512;DHT22;5304;48.604;2.096;2022-10-28T18:40:00;17.20;99.90
10512;DHT22;5304;48.604;2.096;2022-10-28T18:42:44;17.20;99.90
10512;DHT22;5304;48.604;2.096;2022-10-28T18:45:29;17.20;99.90
10512;DHT22;5304;48.604;2.096;2022-10-28T18:48:14;17.10;99.90
10512;DHT22;5304;48.604;2.096;2022-10-28T18:51:02;17.00;99.90
10512;DHT22;5304;48.604;2.096;2022-10-28T18:53:50;16.90;99.90
10512;DHT22;5304;48.604;2.096;2022-10-28T18:56:34;16.80;99.90
10512;DHT22;5304;48.604;2.096;2022-10-28T18:59:19;16.70;99.90
10512;DHT22;5304;48.604;2.096;2022-10-28T19:02:03;16.70;99.90
10512;DHT22;5304;48.604;2.096;2022-10-28T19:04:48;16.70;99.90
10512;DHT22;5304;48.604;2.096;2022-10-28T19:07:32;16.70;99.90
10512;DHT22;5304;48.604;2.096;2022-10-28T19:10:16;16.80;99.90
10512;DHT22;5304;48.604;2.096;2022-10-28T19:13:01;16.90;99.90
10512;DHT22;5304;48.604;2.096;2022-10-28T19:15:46;16.90;99.90
10512;DHT22;5304;48.604;2.096;2022-10-28T19:18:31;16.90;99.90
10512;DHT22;5304;48.604;2.096;2022-10-28T19:21:18;16.90;99.90
10512;DHT22;5304;48.604;2.096;2022-10-28T19:24:03;16.90;99.90
10512;DHT22;5304;48.604;2.096;2022-10-28T19:26:48;16.90;99.90
10512;DHT22;5304;48.604;2.096;2022-10-28T19:29:34;16.90;99.90
10512;DHT22;5304;48.604;2.096;2022-10-28T19:32:18;16.90;99.90
10512;DHT22;5304;48.604;2.096;2022-10-28T19:35:03;16.90;99.90
10512;DHT22;5304;48.604;2.096;2022-10-28T19:37:51;16.90;99.90
10512;DHT22;5304;48.604;2.096;2022-10-28T19:40:36;17.00;99.90
10512;DHT22;5304;48.604;2.096;2022-10-28T19:43:20;16.90;99.90
10512;DHT22;5304;48.604;2.096;2022-10-28T19:46:12;16.90;99.90
10512;DHT22;5304;48.604;2.096;2022-10-28T19:49:00;16.90;99.90
10512;DHT22;5304;48.604;2.096;2022-10-28T19:51:45;16.90;99.90
10512;DHT22;5304;48.604;2.096;2022-10-28T19:54:30;16.80;99.90
10512;DHT22;5304;48.604;2.096;2022-10-28T19:57:15;16.80;99.90
10512;DHT22;5304;48.604;2.096;2022-10-28T20:00:00;16.70;99.90
10512;DHT22;5304;48.604;2.096;2022-10-28T20:02:46;16.70;99.90
10512;DHT22;5304;48.604;2.096;2022-10-28T20:05:30;16.70;99.90
10512;DHT22;5304;48.604;2.096;2022-10-28T20:08:15;16.70;99.90
10512;DHT22;5304;48.604;2.096;2022-10-28T20:11:03;16.60;99.90
10512;DHT22;5304;48.604;2.096;2022-10-28T20:13:52;16.60;99.90
10512;DHT22;5304;48.604;2.096;2022-10-28T20:16:39;16.70;99.90
10512;DHT22;5304;48.604;2.096;2022-10-28T20:19:25;16.70;99.90
10512;DHT22;5304;48.604;2.096;2022-10-28T20:22:10;16.70;99.90
10512;DHT22;5304;48.604;2.096;2022-10-28T20:24:55;16.70;99.90
10512;DHT22;5304;48.604;2.096;2022-10-28T20:27:39;16.70;99.90
10512;DHT22;5304;48.604;2.096;2022-10-28T20:30:24;16.60;99.90
10512;DHT22;5304;48.604;2.096;2022-10-28T20:33:08;16.50;99.90
10512;DHT22;5304;48.604;2.096;2022-10-28T20:35:53;16.40;99.90
10512;DHT22;5304;48.604;2.096;2022-10-28T20:38:37;16.40;99.90
10512;DHT22;5304;48.604;2.096;2022-10-28T20:41:23;16.50;99.90
10512;DHT22;5304;48.604;2.096;2022-10-28T20:44:08;16.40;99.90
10512;DHT22;5304;48.604;2.096;2022-10-28T20:46:53;16.50;99.90
10512;DHT22;5304;48.604;2.096;2022-10-28T20:49:37;16.60;99.90
10512;DHT22;5304;48.604;2.096;2022-10-28T20:52:24;16.60;99.90
10512;DHT22;5304;48.604;2.096;2022-10-28T20:55:08;16.70;99.90
10512;DHT22;5304;48.604;2.096;2022-10-28T20:57:53;16.70;99.90
10512;DHT22;5304;48.604;2.096;2022-10-28T21:00:37;16.70;99.90
10512;DHT22;5304;48.604;2.096;2022-10-28T21:03:22;16.60;99.90
10512;DHT22;5304;48.604;2.096;2022-10-28T21:06:07;16.50;99.90
10512;DHT22;5304;48.604;2.096;2022-10-28T21:08:52;16.50;99.90